sensor_id;sensor_type;location;lat;lon;timestamp;temperature;humidity
3202;DHT22;34843;48.744;8.958;2022-12-17T00:01:00;-6.00;99.90
3202;DHT22;34843;48.744;8.958;2022-12-17T00:03:45;-6.20;99.90
3202;DHT22;34843;48.744;8.958;2022-12-17T00:06:29;-6.30;99.90
3202;DHT22;34843;48.744;8.958;2022-12-17T00:09:13;-6.30;99.90
3202;DHT22;34843;48.744;8.958;2022-12-17T00:12:01;-6.50;99.90
3202;DHT22;34843;48.744;8.958;2022-12-17T00:14:46;-6.60;99.90
3202;DHT22;34843;48.744;8.958;2022-12-17T00:17:30;-6.70;99.90
3202;DHT22;34843;48.744;8.958;2022-12-17T00:20:14;-6.80;99.90
3202;DHT22;34843;48.744;8.958;2022-12-17T00:23:03;-6.80;99.90
3202;DHT22;34843;48.744;8.958;2022-12-17T00:25:51;-6.90;99.90
3202;DHT22;34843;48.744;8.958;2022-12-17T00:28:35;-7.00;99.90
3202;DHT22;34843;48.744;8.958;2022-12-17T00:31:19;-7.10;99.90
3202;DHT22;34843;48.744;8.958;2022-12-17T00:34:04;-7.20;99.90
3202;DHT22;34843;48.744;8.958;2022-12-17T00:36:48;-7.20;99.90
3202;DHT22;34843;48.744;8.958;2022-12-17T00:39:31;-7.20;99.90
3202;DHT22;34843;48.744;8.958;2022-12-17T00:42:15;-7.20;99.90
3202;DHT22;34843;48.744;8.958;2022-12-17T00:45:00;-7.10;99.90
3202;DHT22;34843;48.744;8.958;2022-12-17T00:47:44;-7.20;99.90
3202;DHT22;34843;48.744;8.958;2022-12-17T00:50:28;-7.30;99.90
3202;DHT22;34843;48.744;8.958;2022-12-17T00:53:12;-7.50;99.90
3202;DHT22;34843;48.744;8.958;2022-12-17T00:55:56;-7.40;99.90
3202;DHT22;34843;48.744;8.958;2022-12-17T00:58:40;-7.40;99.90
3202;DHT22;34843;48.744;8.958;2022-12-17T01:01:24;-7.40;99.90
3202;DHT22;34843;48.744;8.958;2022-12-17T01:04:08;-7.50;99.90
3202;DHT22;34843;48.744;8.958;2022-12-17T01:06:52;-7.60;99.90
3202;DHT22;34843;48.744;8.958;2022-12-17T01:09:36;-7.70;99.90
3202;DHT22;34843;48.744;8.958;2022-12-17T01:12:20;-7.80;99.90
3202;DHT22;34843;48.744;8.958;2022-12-17T01:15:04;-7.70;99.90
3202;DHT22;34843;48.744;8.958;2022-12-17T01:17:49;-7.60;99.90
3202;DHT22;34843;48.744;8.958;2022-12-17T01:20:33;-7.60;99.90
3202;DHT22;34843;48.744;8.958;2022-12-17T01:23:17;-7.70;99.90
3202;DHT22;34843;48.744;8.958;2022-12-17T01:26:01;-7.80;99.90
3202;DHT22;34843;48.744;8.958;2022-12-17T01:28:45;-7.70;99.90
3202;DHT22;34843;48.744;8.958;2022-12-17T01:31:29;-7.80;99.90
3202;DHT22;34843;48.744;8.958;2022-12-17T01:34:13;-7.90;99.90
3202;DHT22;34843;48.744;8.958;2022-12-17T01:36:57;-7.80;99.90
3202;DHT22;34843;48.744;8.958;2022-12-17T01:39:41;-7.80;99.90
3202;DHT22;34843;48.744;8.958;2022-12-17T01:42:25;-7.80;99.90
3202;DHT22;34843;48.744;8.958;2022-12-17T01:45:11;-7.80;99.90
3202;DHT22;34843;48.744;8.958;2022-12-17T01:48:00;-7.80;99.90
3202;DHT22;34843;48.744;8.958;2022-12-17T01:50:55;-7.90;99.90
3202;DHT22;34843;48.744;8.958;2022-12-17T01:53:47;-7.90;99.90
3202;DHT22;34843;48.744;8.958;2022-12-17T01:56:32;-8.00;99.90
3202;DHT22;34843;48.744;8.958;2022-12-17T01:59:20;-8.00;99.90
3202;DHT22;34843;48.744;8.958;2022-12-17T02:02:07;-8.10;99.90
3202;DHT22;34843;48.744;8.958;2022-12-17T02:04:51;-8.30;99.90
3202;DHT22;34843;48.744;8.958;2022-12-17T02:10:33;-8.40;99.90
3202;DHT22;34843;48.744;8.958;2022-12-17T02:13:30;-8.40;99.90
3202;DHT22;34843;48.744;8.958;2022-12-17T02:16:23;-8.40;99.90
3202;DHT22;34843;48.744;8.958;2022-12-17T02:19:29;-8.40;99.90
3202;DHT22;34843;48.744;8.958;2022-12-17T02:25:58;-8.60;99.90
3202;DHT22;34843;48.744;8.958;2022-12-17T02:28:47;-8.60;99.90
3202;DHT22;34843;48.744;8.958;2022-12-17T02:31:34;-8.50;99.90
3202;DHT22;34843;48.744;8.958;2022-12-17T02:34:18;-8.60;99.90
3202;DHT22;34843;48.744;8.958;2022-12-17T02:37:02;-8.60;99.90
3202;DHT22;34843;48.744;8.958;2022-12-17T02:39:46;-8.50;99.90
3202;DHT22;34843;48.744;8.958;2022-12-17T02:42:31;-8.50;99.90
3202;DHT22;34843;48.744;8.958;2022-12-17T02:45:16;-8.50;99.90
3202;DHT22;34843;48.744;8.958;2022-12-17T02:48:02;-8.50;99.90
3202;DHT22;34843;48.744;8.958;2022-12-17T02:50:47;-8.50;99.90
3202;DHT22;34843;48.744;8.958;2022-12-17T02:53:32;-8.60;99.90
3202;DHT22;34843;48.744;8.958;2022-12-17T02:56:16;-8.60;99.90
3202;DHT22;34843;48.744;8.958;2022-12-17T02:59:00;-8.60;99.90
3202;DHT22;34843;48.744;8.958;2022-12-17T03:01:44;-8.70;99.90
3202;DHT22;34843;48.744;8.958;2022-12-17T03:04:28;-8.70;99.90
3202;DHT22;34843;48.744;8.958;2022-12-17T03:07:12;-8.70;99.90
3202;DHT22;34843;48.744;8.958;2022-12-17T03:09:56;-8.70;99.90
3202;DHT22;34843;48.744;8.958;2022-12-17T03:12:40;-8.70;99.90
3202;DHT22;34843;48.744;8.958;2022-12-17T03:15:24;-8.70;99.90
3202;DHT22;34843;48.744;8.958;2022-12-17T03:18:08;-8.80;99.90
3202;DHT22;34843;48.744;8.958;2022-12-17T03:20:52;-8.90;99.90
3202;DHT22;34843;48.744;8.958;2022-12-17T03:23:37;-8.90;99.90
3202;DHT22;34843;48.744;8.958;2022-12-17T03:26:21;-9.00;99.90
3202;DHT22;34843;48.744;8.958;2022-12-17T03:29:05;-8.90;99.90
3202;DHT22;34843;48.744;8.958;2022-12-17T03:31:49;-9.00;99.90
3202;DHT22;34843;48.744;8.958;2022-12-17T03:34:33;-9.00;99.90
3202;DHT22;34843;48.744;8.958;2022-12-17T03:37:17;-9.00;99.90
3202;DHT22;34843;48.744;8.958;2022-12-17T03:40:01;-9.00;99.90
3202;DHT22;34843;48.744;8.958;2022-12-17T03:42:45;-9.10;99.90
3202;DHT22;34843;48.744;8.958;2022-12-17T03:45:29;-9.20;99.90
3202;DHT22;34843;48.744;8.958;2022-12-17T03:48:13;-9.20;99.90
3202;DHT22;34843;48.744;8.958;2022-12-17T03:50:59;-9.20;99.90
3202;DHT22;34843;48.744;8.958;2022-12-17T03:53:44;-9.20;99.90
3202;DHT22;34843;48.744;8.958;2022-12-17T03:56:28;-9.20;99.90
3202;DHT22;34843;48.744;8.958;2022-12-17T03:59:13;-9.20;99.90
3202;DHT22;34843;48.744;8.958;2022-12-17T04:01:57;-9.10;99.90
3202;DHT22;34843;48.744;8.958;2022-12-17T04:04:42;-9.10;99.90
3202;DHT22;34843;48.744;8.958;2022-12-17T04:07:26;-9.10;99.90
3202;DHT22;34843;48.744;8.958;2022-12-17T04:10:10;-9.20;99.90
3202;DHT22;34843;48.744;8.958;2022-12-17T04:12:55;-9.20;99.90
3202;DHT22;34843;48.744;8.958;2022-12-17T04:15:39;-9.20;99.90
3202;DHT22;34843;48.744;8.958;2022-12-17T04:18:23;-9.20;99.90
3202;DHT22;34843;48.744;8.958;2022-12-17T04:21:07;-9.30;99.90
3202;DHT22;34843;48.744;8.958;2022-12-17T04:23:51;-9.30;99.90
3202;DHT22;34843;48.744;8.958;2022-12-17T04:26:35;-9.30;99.90
3202;DHT22;34843;48.744;8.958;2022-12-17T04:29:19;-9.30;99.90
3202;DHT22;34843;48.744;8.958;2022-12-17T04:32:03;-9.30;99.90
3202;DHT22;34843;48.744;8.958;2022-12-17T04:34:47;-9.30;99.90
3202;DHT22;34843;48.744;8.958;2022-12-17T04:37:31;-9.30;99.90
3202;DHT22;34843;48.744;8.958;2022-12-17T04:40:16;-9.40;99.90
3202;DHT22;34843;48.744;8.958;2022-12-17T04:43:07;-9.40;99.90
3202;DHT22;34843;48.744;8.958;2022-12-17T04:45:51;-9.40;99.90
3202;DHT22;34843;48.744;8.958;2022-12-17T04:48:35;-9.50;99.90
3202;DHT22;34843;48.744;8.958;2022-12-17T04:51:19;-9.50;99.90
3202;DHT22;34843;48.744;8.958;2022-12-17T04:54:03;-9.40;99.90
3202;DHT22;34843;48.744;8.958;2022-12-17T04:56:47;-9.40;99.90
3202;DHT22;34843;48.744;8.958;2022-12-17T04:59:31;-9.30;99.90
3202;DHT22;34843;48.744;8.958;2022-12-17T05:02:16;-9.30;99.90
3202;DHT22;34843;48.744;8.958;2022-12-17T05:05:00;-9.30;99.90
3202;DHT22;34843;48.744;8.958;2022-12-17T05:07:44;-9.40;99.90
3202;DHT22;34843;48.744;8.958;2022-12-17T05:10:28;-9.50;99.90
3202;DHT22;34843;48.744;8.958;2022-12-17T05:13:12;-9.50;99.90
3202;DHT22;34843;48.744;8.958;2022-12-17T05:15:56;-9.50;99.90
3202;DHT22;34843;48.744;8.958;2022-12-17T05:18:40;-9.60;99.90
3202;DHT22;34843;48.744;8.958;2022-12-17T05:21:24;-9.70;99.90
3202;DHT22;34843;48.744;8.958;2022-12-17T05:24:18;-9.70;99.90
3202;DHT22;34843;48.744;8.958;2022-12-17T05:27:03;-9.70;99.90
3202;DHT22;34843;48.744;8.958;2022-12-17T05:29:47;-9.80;99.90
3202;DHT22;34843;48.744;8.958;2022-12-17T05:32:31;-9.80;99.90
3202;DHT22;34843;48.744;8.958;2022-12-17T05:35:15;-9.80;99.90
3202;DHT22;34843;48.744;8.958;2022-12-17T05:38:07;-9.80;99.90
3202;DHT22;34843;48.744;8.958;2022-12-17T05:40:54;-9.80;99.90
3202;DHT22;34843;48.744;8.958;2022-12-17T05:43:38;-9.80;99.90
3202;DHT22;34843;48.744;8.958;2022-12-17T05:46:22;-9.90;99.90
3202;DHT22;34843;48.744;8.958;2022-12-17T05:49:06;-10.00;99.90
3202;DHT22;34843;48.744;8.958;2022-12-17T05:51:50;-10.10;99.90
3202;DHT22;34843;48.744;8.958;2022-12-17T05:54:34;-10.10;99.90
3202;DHT22;34843;48.744;8.958;2022-12-17T05:57:18;-10.10;99.90
3202;DHT22;34843;48.744;8.958;2022-12-17T06:00:03;-10.00;99.90
3202;DHT22;34843;48.744;8.958;2022-12-17T06:02:47;-10.00;99.90
3202;DHT22;34843;48.744;8.958;2022-12-17T06:05:39;-9.90;99.90
3202;DHT22;34843;48.744;8.958;2022-12-17T06:08:23;-9.90;99.90
3202;DHT22;34843;48.744;8.958;2022-12-17T06:11:07;-9.90;99.90
3202;DHT22;34843;48.744;8.958;2022-12-17T06:13:51;-9.90;99.90
3202;DHT22;34843;48.744;8.958;2022-12-17T06:16:35;-9.80;99.90
3202;DHT22;34843;48.744;8.958;2022-12-17T06:19:19;-9.80;99.90
3202;DHT22;34843;48.744;8.958;2022-12-17T06:22:04;-9.80;99.90
3202;DHT22;34843;48.744;8.958;2022-12-17T06:24:48;-9.80;99.90
3202;DHT22;34843;48.744;8.958;2022-12-17T06:27:32;-9.80;99.90
3202;DHT22;34843;48.744;8.958;2022-12-17T06:30:16;-9.80;99.90
3202;DHT22;34843;48.744;8.958;2022-12-17T06:33:05;-9.80;99.90
3202;DHT22;34843;48.744;8.958;2022-12-17T06:35:51;-9.80;99.90
3202;DHT22;34843;48.744;8.958;2022-12-17T06:38:35;-9.70;99.90
3202;DHT22;34843;48.744;8.958;2022-12-17T06:41:19;-9.70;99.90
3202;DHT22;34843;48.744;8.958;2022-12-17T06:44:03;-9.60;99.90
3202;DHT22;34843;48.744;8.958;2022-12-17T06:46:47;-9.60;99.90
3202;DHT22;34843;48.744;8.958;2022-12-17T06:49:31;-9.40;99.90
3202;DHT22;34843;48.744;8.958;2022-12-17T06:52:15;-9.40;99.90
3202;DHT22;34843;48.744;8.958;2022-12-17T06:54:59;-9.30;99.90
3202;DHT22;34843;48.744;8.958;2022-12-17T06:57:43;-9.20;99.90
3202;DHT22;34843;48.744;8.958;2022-12-17T07:00:27;-9.10;99.90
3202;DHT22;34843;48.744;8.958;2022-12-17T07:03:12;-9.00;99.90
3202;DHT22;34843;48.744;8.958;2022-12-17T07:05:59;-9.00;99.90
3202;DHT22;34843;48.744;8.958;2022-12-17T07:08:44;-8.90;99.90
3202;DHT22;34843;48.744;8.958;2022-12-17T07:11:28;-8.80;99.90
3202;DHT22;34843;48.744;8.958;2022-12-17T07:14:12;-8.70;99.90
3202;DHT22;34843;48.744;8.958;2022-12-17T07:16:56;-8.60;99.90
3202;DHT22;34843;48.744;8.958;2022-12-17T07:19:40;-8.50;99.90
3202;DHT22;34843;48.744;8.958;2022-12-17T07:22:24;-8.40;99.90
3202;DHT22;34843;48.744;8.958;2022-12-17T07:25:08;-8.30;99.90
3202;DHT22;34843;48.744;8.958;2022-12-17T07:27:53;-8.20;99.90
3202;DHT22;34843;48.744;8.958;2022-12-17T07:30:37;-8.10;99.90
3202;DHT22;34843;48.744;8.958;2022-12-17T07:33:21;-8.00;99.90
3202;DHT22;34843;48.744;8.958;2022-12-17T07:36:06;-7.80;99.90
3202;DHT22;34843;48.744;8.958;2022-12-17T07:38:50;-7.70;99.90
3202;DHT22;34843;48.744;8.958;2022-12-17T07:41:34;-7.60;99.90
3202;DHT22;34843;48.744;8.958;2022-12-17T07:44:18;-7.50;99.90
3202;DHT22;34843;48.744;8.958;2022-12-17T07:47:02;-7.40;99.90
3202;DHT22;34843;48.744;8.958;2022-12-17T07:49:46;-7.30;99.90
3202;DHT22;34843;48.744;8.958;2022-12-17T07:52:30;-7.20;99.90
3202;DHT22;34843;48.744;8.958;2022-12-17T07:55:14;-7.10;99.90
3202;DHT22;34843;48.744;8.958;2022-12-17T07:58:05;-7.00;99.90
3202;DHT22;34843;48.744;8.958;2022-12-17T08:00:49;-6.90;99.90
3202;DHT22;34843;48.744;8.958;2022-12-17T08:03:34;-6.90;99.90
3202;DHT22;34843;48.744;8.958;2022-12-17T08:06:18;-6.90;99.90
3202;DHT22;34843;48.744;8.958;2022-12-17T08:09:02;-6.90;99.90
3202;DHT22;34843;48.744;8.958;2022-12-17T08:11:47;-6.90;99.90
3202;DHT22;34843;48.744;8.958;2022-12-17T08:14:31;-6.80;99.90
3202;DHT22;34843;48.744;8.958;2022-12-17T08:17:15;-6.70;99.90
3202;DHT22;34843;48.744;8.958;2022-12-17T08:19:59;-6.60;99.90
3202;DHT22;34843;48.744;8.958;2022-12-17T08:22:43;-6.50;99.90
3202;DHT22;34843;48.744;8.958;2022-12-17T08:25:27;-6.50;99.90
3202;DHT22;34843;48.744;8.958;2022-12-17T08:28:11;-6.50;99.90
3202;DHT22;34843;48.744;8.958;2022-12-17T08:30:55;-6.50;99.90
3202;DHT22;34843;48.744;8.958;2022-12-17T08:33:39;-6.50;99.90
3202;DHT22;34843;48.744;8.958;2022-12-17T08:36:23;-6.40;99.90
3202;DHT22;34843;48.744;8.958;2022-12-17T08:39:07;-6.40;99.90
3202;DHT22;34843;48.744;8.958;2022-12-17T08:41:51;-6.20;99.90
3202;DHT22;34843;48.744;8.958;2022-12-17T08:44:35;-6.10;99.90
3202;DHT22;34843;48.744;8.958;2022-12-17T08:47:19;-6.00;99.90
3202;DHT22;34843;48.744;8.958;2022-12-17T08:50:04;-6.00;99.90
3202;DHT22;34843;48.744;8.958;2022-12-17T08:52:48;-5.90;99.90
3202;DHT22;34843;48.744;8.958;2022-12-17T08:55:32;-6.00;99.90
3202;DHT22;34843;48.744;8.958;2022-12-17T08:58:16;-6.00;99.90
3202;DHT22;34843;48.744;8.958;2022-12-17T09:01:01;-6.00;99.90
3202;DHT22;34843;48.744;8.958;2022-12-17T09:03:55;-5.90;99.90
3202;DHT22;34843;48.744;8.958;2022-12-17T09:06:39;-6.00;99.90
3202;DHT22;34843;48.744;8.958;2022-12-17T09:09:23;-6.20;99.90
3202;DHT22;34843;48.744;8.958;2022-12-17T09:12:07;-6.30;99.90
3202;DHT22;34843;48.744;8.958;2022-12-17T09:14:51;-6.30;99.90
3202;DHT22;34843;48.744;8.958;2022-12-17T09:17:35;-6.20;99.90
3202;DHT22;34843;48.744;8.958;2022-12-17T09:20:19;-6.10;99.90
3202;DHT22;34843;48.744;8.958;2022-12-17T09:23:03;-6.20;99.90
3202;DHT22;34843;48.744;8.958;2022-12-17T09:25:55;-6.10;99.90
3202;DHT22;34843;48.744;8.958;2022-12-17T09:28:39;-6.00;99.90
3202;DHT22;34843;48.744;8.958;2022-12-17T09:31:24;-6.20;99.90
3202;DHT22;34843;48.744;8.958;2022-12-17T09:34:08;-6.30;99.90
3202;DHT22;34843;48.744;8.958;2022-12-17T09:36:52;-6.20;99.90
3202;DHT22;34843;48.744;8.958;2022-12-17T09:39:37;-6.10;99.90
3202;DHT22;34843;48.744;8.958;2022-12-17T09:45:15;-5.80;99.90
3202;DHT22;34843;48.744;8.958;2022-12-17T09:50:49;-5.90;99.90
3202;DHT22;34843;48.744;8.958;2022-12-17T09:53:43;-5.90;99.90
3202;DHT22;34843;48.744;8.958;2022-12-17T09:56:30;-5.70;99.90
3202;DHT22;34843;48.744;8.958;2022-12-17T09:59:23;-5.60;99.90
3202;DHT22;34843;48.744;8.958;2022-12-17T10:02:34;-5.40;99.90
3202;DHT22;34843;48.744;8.958;2022-12-17T10:05:28;-5.20;99.90
3202;DHT22;34843;48.744;8.958;2022-12-17T10:08:17;-5.00;99.90
3202;DHT22;34843;48.744;8.958;2022-12-17T10:11:23;-4.80;99.90
3202;DHT22;34843;48.744;8.958;2022-12-17T10:14:18;-4.90;99.90
3202;DHT22;34843;48.744;8.958;2022-12-17T10:17:03;-4.90;99.90
3202;DHT22;34843;48.744;8.958;2022-12-17T10:19:53;-4.90;99.90
3202;DHT22;34843;48.744;8.958;2022-12-17T10:22:43;-4.80;99.90
3202;DHT22;34843;48.744;8.958;2022-12-17T10:25:50;-4.70;99.90
3202;DHT22;34843;48.744;8.958;2022-12-17T10:28:34;-4.40;99.90
3202;DHT22;34843;48.744;8.958;2022-12-17T10:31:21;-4.40;99.90
3202;DHT22;34843;48.744;8.958;2022-12-17T10:34:13;-4.30;99.90
3202;DHT22;34843;48.744;8.958;2022-12-17T10:36:58;-4.40;99.90
3202;DHT22;34843;48.744;8.958;2022-12-17T10:39:42;-4.30;99.90
3202;DHT22;34843;48.744;8.958;2022-12-17T10:42:29;-4.20;99.90
3202;DHT22;34843;48.744;8.958;2022-12-17T10:45:24;-4.20;99.90
3202;DHT22;34843;48.744;8.958;2022-12-17T10:48:29;-4.40;99.90
3202;DHT22;34843;48.744;8.958;2022-12-17T10:54:18;-4.80;99.90
3202;DHT22;34843;48.744;8.958;2022-12-17T10:57:05;-4.80;99.90
3202;DHT22;34843;48.744;8.958;2022-12-17T10:59:50;-4.70;99.90
3202;DHT22;34843;48.744;8.958;2022-12-17T11:02:35;-4.60;99.90
3202;DHT22;34843;48.744;8.958;2022-12-17T11:08:08;-4.40;99.90
3202;DHT22;34843;48.744;8.958;2022-12-17T11:10:53;-4.20;99.90
3202;DHT22;34843;48.744;8.958;2022-12-17T11:13:41;-4.10;99.90
3202;DHT22;34843;48.744;8.958;2022-12-17T11:16:34;-4.00;99.90
3202;DHT22;34843;48.744;8.958;2022-12-17T11:22:30;-4.00;99.90
3202;DHT22;34843;48.744;8.958;2022-12-17T11:25:27;-4.00;99.90
3202;DHT22;34843;48.744;8.958;2022-12-17T11:28:21;-3.90;99.90
3202;DHT22;34843;48.744;8.958;2022-12-17T11:31:39;-3.80;99.90
3202;DHT22;34843;48.744;8.958;2022-12-17T11:37:31;-3.90;99.90
3202;DHT22;34843;48.744;8.958;2022-12-17T11:40:40;-4.20;99.90
3202;DHT22;34843;48.744;8.958;2022-12-17T11:52:03;-4.40;99.90
3202;DHT22;34843;48.744;8.958;2022-12-17T11:57:57;-4.30;99.90
3202;DHT22;34843;48.744;8.958;2022-12-17T12:01:15;-4.20;99.90
3202;DHT22;34843;48.744;8.958;2022-12-17T12:10:24;-4.00;99.90
3202;DHT22;34843;48.744;8.958;2022-12-17T12:13:36;-3.90;99.90
3202;DHT22;34843;48.744;8.958;2022-12-17T12:16:54;-3.80;99.90
3202;DHT22;34843;48.744;8.958;2022-12-17T12:20:05;-3.70;99.90
3202;DHT22;34843;48.744;8.958;2022-12-17T12:23:23;-3.70;99.90
3202;DHT22;34843;48.744;8.958;2022-12-17T12:26:26;-3.60;99.90
3202;DHT22;34843;48.744;8.958;2022-12-17T12:29:39;-3.50;99.90
3202;DHT22;34843;48.744;8.958;2022-12-17T12:35:32;-3.40;99.90
3202;DHT22;34843;48.744;8.958;2022-12-17T12:38:23;-3.40;99.90
3202;DHT22;34843;48.744;8.958;2022-12-17T12:44:07;-3.20;99.90
3202;DHT22;34843;48.744;8.958;2022-12-17T12:47:05;-3.10;99.90
3202;DHT22;34843;48.744;8.958;2022-12-17T12:50:22;-3.10;99.90
3202;DHT22;34843;48.744;8.958;2022-12-17T12:53:10;-3.00;99.90
3202;DHT22;34843;48.744;8.958;2022-12-17T12:55:55;-2.90;99.90
3202;DHT22;34843;48.744;8.958;2022-12-17T12:58:47;-2.90;99.90
3202;DHT22;34843;48.744;8.958;2022-12-17T13:01:34;-2.90;99.90
3202;DHT22;34843;48.744;8.958;2022-12-17T13:04:33;-2.90;99.90
3202;DHT22;34843;48.744;8.958;2022-12-17T13:07:23;-2.90;99.90
3202;DHT22;34843;48.744;8.958;2022-12-17T13:09:52;-2.80;99.90
3202;DHT22;34843;48.744;8.958;2022-12-17T13:15:12;-2.90;99.90
3202;DHT22;34843;48.744;8.958;2022-12-17T13:17:54;-2.90;99.90
3202;DHT22;34843;48.744;8.958;2022-12-17T13:20:30;-2.90;99.90
3202;DHT22;34843;48.744;8.958;2022-12-17T13:25:34;-3.00;99.90
3202;DHT22;34843;48.744;8.958;2022-12-17T13:28:00;-3.00;99.90
3202;DHT22;34843;48.744;8.958;2022-12-17T13:30:34;-3.00;99.90
3202;DHT22;34843;48.744;8.958;2022-12-17T13:33:07;-3.00;99.90
3202;DHT22;34843;48.744;8.958;2022-12-17T13:35:47;-2.90;99.90
3202;DHT22;34843;48.744;8.958;2022-12-17T13:38:26;-2.80;99.90
3202;DHT22;34843;48.744;8.958;2022-12-17T13:41:05;-2.80;99.90
3202;DHT22;34843;48.744;8.958;2022-12-17T13:43:38;-2.70;99.90
3202;DHT22;34843;48.744;8.958;2022-12-17T13:46:04;-2.70;99.90
3202;DHT22;34843;48.744;8.958;2022-12-17T13:48:30;-2.70;99.90
3202;DHT22;34843;48.744;8.958;2022-12-17T13:51:01;-2.70;99.90
3202;DHT22;34843;48.744;8.958;2022-12-17T13:53:29;-2.70;99.90
3202;DHT22;34843;48.744;8.958;2022-12-17T13:55:57;-2.70;99.90
3202;DHT22;34843;48.744;8.958;2022-12-17T13:58:28;-2.80;99.90
3202;DHT22;34843;48.744;8.958;2022-12-17T14:01:09;-2.90;99.90
3202;DHT22;34843;48.744;8.958;2022-12-17T14:03:35;-2.90;99.90
3202;DHT22;34843;48.744;8.958;2022-12-17T14:06:02;-2.90;99.90
3202;DHT22;34843;48.744;8.958;2022-12-17T14:08:30;-3.00;99.90
3202;DHT22;34843;48.744;8.958;2022-12-17T14:10:57;-3.00;99.90
3202;DHT22;34843;48.744;8.958;2022-12-17T14:13:44;-3.10;99.90
3202;DHT22;34843;48.744;8.958;2022-12-17T14:16:17;-3.10;99.90
3202;DHT22;34843;48.744;8.958;2022-12-17T14:18:49;-3.10;99.90
3202;DHT22;34843;48.744;8.958;2022-12-17T14:21:16;-3.20;99.90
3202;DHT22;34843;48.744;8.958;2022-12-17T14:23:42;-3.20;99.90
3202;DHT22;34843;48.744;8.958;2022-12-17T14:26:10;-3.30;99.90
3202;DHT22;34843;48.744;8.958;2022-12-17T14:28:47;-3.30;99.90
3202;DHT22;34843;48.744;8.958;2022-12-17T14:33:41;-3.50;99.90
3202;DHT22;34843;48.744;8.958;2022-12-17T14:36:07;-3.50;99.90
3202;DHT22;34843;48.744;8.958;2022-12-17T14:38:34;-3.60;99.90
3202;DHT22;34843;48.744;8.958;2022-12-17T14:41:12;-3.70;99.90
3202;DHT22;34843;48.744;8.958;2022-12-17T14:43:59;-3.70;99.90
3202;DHT22;34843;48.744;8.958;2022-12-17T14:46:26;-3.80;99.90
3202;DHT22;34843;48.744;8.958;2022-12-17T14:48:56;-3.80;99.90
3202;DHT22;34843;48.744;8.958;2022-12-17T14:51:35;-3.80;99.90
3202;DHT22;34843;48.744;8.958;2022-12-17T14:54:26;-3.90;99.90
3202;DHT22;34843;48.744;8.958;2022-12-17T14:56:54;-4.00;99.90
3202;DHT22;34843;48.744;8.958;2022-12-17T14:59:35;-4.10;99.90
3202;DHT22;34843;48.744;8.958;2022-12-17T15:02:23;-4.20;99.90
3202;DHT22;34843;48.744;8.958;2022-12-17T15:04:52;-4.20;99.90
3202;DHT22;34843;48.744;8.958;2022-12-17T15:07:26;-4.20;99.90
3202;DHT22;34843;48.744;8.958;2022-12-17T15:09:53;-4.30;99.90
3202;DHT22;34843;48.744;8.958;2022-12-17T15:12:19;-4.40;99.90
3202;DHT22;34843;48.744;8.958;2022-12-17T15:14:45;-4.50;99.90
3202;DHT22;34843;48.744;8.958;2022-12-17T15:17:11;-4.60;99.90
3202;DHT22;34843;48.744;8.958;2022-12-17T15:19:37;-4.70;99.90
3202;DHT22;34843;48.744;8.958;2022-12-17T15:22:03;-4.80;99.90
3202;DHT22;34843;48.744;8.958;2022-12-17T15:24:29;-4.90;99.90
3202;DHT22;34843;48.744;8.958;2022-12-17T15:26:54;-5.00;99.90
3202;DHT22;34843;48.744;8.958;2022-12-17T15:29:20;-5.00;99.90
3202;DHT22;34843;48.744;8.958;2022-12-17T15:31:46;-5.20;99.90
3202;DHT22;34843;48.744;8.958;2022-12-17T15:34:11;-5.30;99.90
3202;DHT22;34843;48.744;8.958;2022-12-17T15:36:37;-5.40;99.90
3202;DHT22;34843;48.744;8.958;2022-12-17T15:39:02;-5.50;99.90
3202;DHT22;34843;48.744;8.958;2022-12-17T15:41:30;-5.60;99.90
3202;DHT22;34843;48.744;8.958;2022-12-17T15:44:14;-5.80;99.90
3202;DHT22;34843;48.744;8.958;2022-12-17T15:46:40;-5.80;99.90
3202;DHT22;34843;48.744;8.958;2022-12-17T15:49:05;-5.90;99.90
3202;DHT22;34843;48.744;8.958;2022-12-17T15:51:31;-6.10;99.90
3202;DHT22;34843;48.744;8.958;2022-12-17T15:53:56;-6.20;99.90
3202;DHT22;34843;48.744;8.958;2022-12-17T15:56:26;-6.30;99.90
3202;DHT22;34843;48.744;8.958;2022-12-17T15:58:55;-6.40;99.90
3202;DHT22;34843;48.744;8.958;2022-12-17T16:01:21;-6.50;99.90
3202;DHT22;34843;48.744;8.958;2022-12-17T16:03:46;-6.50;99.90
3202;DHT22;34843;48.744;8.958;2022-12-17T16:06:12;-6.70;99.90
3202;DHT22;34843;48.744;8.958;2022-12-17T16:08:38;-6.80;99.90
3202;DHT22;34843;48.744;8.958;2022-12-17T16:11:06;-6.90;99.90
3202;DHT22;34843;48.744;8.958;2022-12-17T16:13:32;-7.10;99.90
3202;DHT22;34843;48.744;8.958;2022-12-17T16:15:57;-7.10;99.90
3202;DHT22;34843;48.744;8.958;2022-12-17T16:18:23;-7.10;99.90
3202;DHT22;34843;48.744;8.958;2022-12-17T16:20:49;-7.10;99.90
3202;DHT22;34843;48.744;8.958;2022-12-17T16:23:15;-7.10;99.90
3202;DHT22;34843;48.744;8.958;2022-12-17T16:25:41;-7.20;99.90
3202;DHT22;34843;48.744;8.958;2022-12-17T16:28:07;-7.20;99.90
3202;DHT22;34843;48.744;8.958;2022-12-17T16:30:32;-7.20;99.90
3202;DHT22;34843;48.744;8.958;2022-12-17T16:32:58;-7.30;99.90
3202;DHT22;34843;48.744;8.958;2022-12-17T16:35:24;-7.30;99.90
3202;DHT22;34843;48.744;8.958;2022-12-17T16:37:49;-7.40;99.90
3202;DHT22;34843;48.744;8.958;2022-12-17T16:40:15;-7.40;99.90
3202;DHT22;34843;48.744;8.958;2022-12-17T16:42:41;-7.40;99.90
3202;DHT22;34843;48.744;8.958;2022-12-17T16:45:07;-7.40;99.90
3202;DHT22;34843;48.744;8.958;2022-12-17T16:47:32;-7.40;99.90
3202;DHT22;34843;48.744;8.958;2022-12-17T16:49:58;-7.50;99.90
3202;DHT22;34843;48.744;8.958;2022-12-17T16:52:23;-7.50;99.90
3202;DHT22;34843;48.744;8.958;2022-12-17T16:54:49;-7.50;99.90
3202;DHT22;34843;48.744;8.958;2022-12-17T16:57:14;-7.60;99.90
3202;DHT22;34843;48.744;8.958;2022-12-17T16:59:40;-7.60;99.90
3202;DHT22;34843;48.744;8.958;2022-12-17T17:02:11;-7.60;99.90
3202;DHT22;34843;48.744;8.958;2022-12-17T17:04:37;-7.60;99.90
3202;DHT22;34843;48.744;8.958;2022-12-17T17:07:03;-7.60;99.90
3202;DHT22;34843;48.744;8.958;2022-12-17T17:09:29;-7.60;99.90
3202;DHT22;34843;48.744;8.958;2022-12-17T17:11:56;-7.60;99.90
3202;DHT22;34843;48.744;8.958;2022-12-17T17:14:23;-7.60;99.90
3202;DHT22;34843;48.744;8.958;2022-12-17T17:16:49;-7.60;99.90
3202;DHT22;34843;48.744;8.958;2022-12-17T17:19:14;-7.60;99.90
3202;DHT22;34843;48.744;8.958;2022-12-17T17:21:43;-7.60;99.90
3202;DHT22;34843;48.744;8.958;2022-12-17T17:24:14;-7.70;99.90
3202;DHT22;34843;48.744;8.958;2022-12-17T17:26:43;-7.70;99.90
3202;DHT22;34843;48.744;8.958;2022-12-17T17:29:09;-7.80;99.90
3202;DHT22;34843;48.744;8.958;2022-12-17T17:31:35;-7.90;99.90
3202;DHT22;34843;48.744;8.958;2022-12-17T17:34:01;-8.00;99.90
3202;DHT22;34843;48.744;8.958;2022-12-17T17:36:28;-8.10;99.90
3202;DHT22;34843;48.744;8.958;2022-12-17T17:38:55;-8.20;99.90
3202;DHT22;34843;48.744;8.958;2022-12-17T17:41:24;-8.20;99.90
3202;DHT22;34843;48.744;8.958;2022-12-17T17:46:19;-8.40;99.90
3202;DHT22;34843;48.744;8.958;2022-12-17T17:48:46;-8.40;99.90
3202;DHT22;34843;48.744;8.958;2022-12-17T17:51:14;-8.40;99.90
3202;DHT22;34843;48.744;8.958;2022-12-17T17:53:40;-8.60;99.90
3202;DHT22;34843;48.744;8.958;2022-12-17T17:56:09;-8.60;99.90
3202;DHT22;34843;48.744;8.958;2022-12-17T17:58:43;-8.50;99.90
3202;DHT22;34843;48.744;8.958;2022-12-17T18:01:10;-8.50;99.90
3202;DHT22;34843;48.744;8.958;2022-12-17T18:03:36;-8.70;99.90
3202;DHT22;34843;48.744;8.958;2022-12-17T18:06:04;-8.70;99.90
3202;DHT22;34843;48.744;8.958;2022-12-17T18:08:32;-8.80;99.90
3202;DHT22;34843;48.744;8.958;2022-12-17T18:10:59;-8.90;99.90
3202;DHT22;34843;48.744;8.958;2022-12-17T18:13:25;-9.00;99.90